createdAt,value
2023-01-07T00:01:01.838Z,100844.53
2023-01-07T00:02:04.331Z,100848.69
2023-01-07T00:03:05.867Z,100847.66
2023-01-07T00:04:11.537Z,100845.91
2023-01-07T00:05:13.066Z,100854.41
2023-01-07T00:06:20.768Z,100849.66
2023-01-07T00:07:22.249Z,100853.22
2023-01-07T00:08:24.690Z,100853.59
2023-01-07T00:09:27.142Z,100854.22
2023-01-07T00:10:28.624Z,100850.63
2023-01-07T00:11:35.200Z,100854.22
2023-01-07T00:12:36.735Z,100851.28
2023-01-07T00:13:42.847Z,100850.78
2023-01-07T00:14:44.348Z,100849.59
2023-01-07T00:15:46.904Z,100847.50
2023-01-07T00:16:49.410Z,100857.91
2023-01-07T00:17:50.892Z,100856.16
2023-01-07T00:18:54.525Z,100858.47
2023-01-07T00:19:56.066Z,100851.09
2023-01-07T00:20:58.977Z,100850.63
2023-01-07T00:22:01.825Z,100851.81
2023-01-07T00:23:04.285Z,100851.09
2023-01-07T00:24:06.946Z,100851.84
2023-01-07T00:25:10.081Z,100840.19
2023-01-07T00:26:13.458Z,100836.97
2023-01-07T00:27:15.930Z,100833.75
2023-01-07T00:28:17.611Z,100838.38
2023-01-07T00:29:21.362Z,100840.31
2023-01-07T00:30:22.875Z,100828.31
2023-01-07T00:31:27.140Z,100831.75
2023-01-07T00:32:43.634Z,100832.75
2023-01-07T00:33:51.872Z,100829.66
2023-01-07T00:34:57.054Z,100841.44
2023-01-07T00:35:59.815Z,100835.16
2023-01-07T00:37:17.622Z,100831.03
2023-01-07T00:38:20.099Z,100837.44
2023-01-07T00:39:21.819Z,100830.72
2023-01-07T00:40:24.613Z,100845.22
2023-01-07T00:41:27.179Z,100839.00
2023-01-07T00:42:47.052Z,100842.28
2023-01-07T00:43:49.549Z,100813.78
2023-01-07T00:44:51.040Z,100843.75
2023-01-07T00:45:53.606Z,100838.78
2023-01-07T00:46:55.288Z,100843.53
2023-01-07T00:47:58.743Z,100834.22
2023-01-07T00:49:01.932Z,100829.50
2023-01-07T00:50:04.647Z,100833.81
2023-01-07T00:51:06.600Z,100828.75
2023-01-07T00:52:10.466Z,100842.44
2023-01-07T00:53:12.305Z,100835.06
2023-01-07T00:54:14.797Z,100841.78
2023-01-07T00:55:16.484Z,100837.75
2023-01-07T00:56:19.879Z,100842.56
2023-01-07T00:57:21.367Z,100843.13
2023-01-07T00:58:25.667Z,100838.84
2023-01-07T00:59:27.195Z,100837.72
2023-01-07T01:00:29.914Z,100843.97
2023-01-07T01:01:31.718Z,100836.97
2023-01-07T01:02:34.342Z,100831.63
2023-01-07T01:03:36.107Z,100831.00
2023-01-07T01:04:38.577Z,100830.84
2023-01-07T01:05:40.214Z,100838.41
2023-01-07T01:06:42.759Z,100831.38
2023-01-07T01:07:45.976Z,100833.19
2023-01-07T01:08:50.238Z,100836.28
2023-01-07T01:09:51.762Z,100831.97
2023-01-07T01:10:54.216Z,100825.19
2023-01-07T01:11:55.716Z,100825.56
2023-01-07T01:12:58.258Z,100825.81
2023-01-07T01:13:59.757Z,100818.47
2023-01-07T01:15:02.214Z,100825.31
2023-01-07T01:16:09.248Z,100830.69
2023-01-07T01:17:11.733Z,100827.91
2023-01-07T01:18:13.631Z,100825.81
2023-01-07T01:19:16.313Z,100843.31
2023-01-07T01:20:19.619Z,100832.38
2023-01-07T01:21:21.117Z,100832.47
2023-01-07T01:22:23.827Z,100830.72
2023-01-07T01:23:26.692Z,100836.84
2023-01-07T01:24:29.447Z,100842.81
2023-01-07T01:25:31.021Z,100833.56
2023-01-07T01:26:33.765Z,100837.88
2023-01-07T01:27:35.435Z,100836.63
2023-01-07T01:28:38.457Z,100838.38
2023-01-07T01:29:40.123Z,100837.56
2023-01-07T01:30:42.594Z,100832.56
2023-01-07T01:31:45.162Z,100839.66
2023-01-07T01:32:46.782Z,100839.69
2023-01-07T01:33:49.355Z,100838.84
2023-01-07T01:34:51.903Z,100824.75
2023-01-07T01:35:53.507Z,100821.56
2023-01-07T01:36:55.980Z,100830.41
2023-01-07T01:37:59.948Z,100831.25
2023-01-07T01:39:04.908Z,100824.88
2023-01-07T01:40:07.695Z,100842.63
2023-01-07T01:41:10.222Z,100831.97
2023-01-07T01:42:13.990Z,100833.09
2023-01-07T01:43:32.888Z,100829.94
2023-01-07T01:44:49.498Z,100832.41
2023-01-07T01:45:51.036Z,100807.31
2023-01-07T01:46:53.673Z,100817.41
2023-01-07T01:47:58.944Z,100814.91
2023-01-07T01:49:06.519Z,100827.16
2023-01-07T01:50:15.399Z,100816.56
2023-01-07T01:51:21.026Z,100820.97
2023-01-07T01:52:30.156Z,100820.34
2023-01-07T01:53:36.578Z,100818.63
2023-01-07T01:54:41.374Z,100816.22
2023-01-07T01:55:50.164Z,100807.81
2023-01-07T01:56:54.784Z,100810.06
2023-01-07T01:58:02.855Z,100801.47
2023-01-07T01:59:06.887Z,100799.66
2023-01-07T02:00:10.936Z,100799.59
2023-01-07T02:01:12.860Z,100807.59
2023-01-07T02:02:18.172Z,100794.03
2023-01-07T02:03:21.552Z,100793.72
2023-01-07T02:04:26.848Z,100798.63
2023-01-07T02:05:31.956Z,100799.94
2023-01-07T02:06:38.439Z,100788.72
2023-01-07T02:07:39.975Z,100797.88
2023-01-07T02:08:42.456Z,100797.56
2023-01-07T02:09:47.040Z,100793.13
2023-01-07T02:10:54.674Z,100795.91
2023-01-07T02:12:06.255Z,100786.72
2023-01-07T02:13:26.322Z,100798.94
2023-01-07T02:14:45.046Z,100805.16
2023-01-07T02:15:56.097Z,100801.34
2023-01-07T02:17:03.871Z,100794.03
2023-01-07T02:18:20.399Z,100795.47
2023-01-07T02:20:07.071Z,100785.31
2023-01-07T02:21:20.530Z,100791.81
2023-01-07T02:22:46.431Z,100782.13
2023-01-07T02:24:37.563Z,100791.34
2023-01-07T02:25:59.452Z,100787.88
2023-01-07T02:27:29.786Z,100790.63
2023-01-07T02:28:55.583Z,100781.56
2023-01-07T02:30:36.766Z,100787.59
2023-01-07T02:31:58.020Z,100791.50
2023-01-07T02:33:16.678Z,100789.28
2023-01-07T02:34:27.322Z,100790.69
2023-01-07T02:35:43.755Z,100783.41
2023-01-07T02:36:57.323Z,100781.25
2023-01-07T02:38:08.148Z,100776.09
2023-01-07T02:39:16.710Z,100780.47
2023-01-07T02:40:23.114Z,100771.78
2023-01-07T02:41:35.627Z,100772.38
2023-01-07T02:42:42.697Z,100781.16
2023-01-07T02:43:53.993Z,100774.06
2023-01-07T02:45:07.566Z,100771.06
2023-01-07T02:46:17.940Z,100766.44
2023-01-07T02:47:28.473Z,100762.09
2023-01-07T02:48:31.314Z,100754.75
2023-01-07T02:49:35.192Z,100764.03
2023-01-07T02:50:36.805Z,100765.09
2023-01-07T02:51:43.837Z,100759.66
2023-01-07T02:52:45.353Z,100771.63
2023-01-07T02:53:49.729Z,100770.06
2023-01-07T02:54:55.889Z,100768.47
2023-01-07T02:56:13.760Z,100773.31
2023-01-07T02:57:37.050Z,100764.09
2023-01-07T02:58:52.087Z,100760.28
2023-01-07T03:00:11.934Z,100761.44
2023-01-07T03:01:41.182Z,100759.94
2023-01-07T03:02:59.428Z,100753.84
2023-01-07T03:04:12.632Z,100763.13
2023-01-07T03:05:27.756Z,100761.78
2023-01-07T03:06:47.832Z,100761.19
2023-01-07T03:08:05.509Z,100742.75
2023-01-07T03:09:12.035Z,100749.38
2023-01-07T03:10:22.516Z,100762.31
2023-01-07T03:11:27.203Z,100756.94
2023-01-07T03:12:36.077Z,100761.63
2023-01-07T03:13:41.590Z,100758.66
2023-01-07T03:14:49.932Z,100761.09
2023-01-07T03:15:55.403Z,100766.22
2023-01-07T03:17:02.557Z,100772.25
2023-01-07T03:18:11.453Z,100771.69
2023-01-07T03:19:16.463Z,100760.03
2023-01-07T03:20:21.472Z,100764.94
2023-01-07T03:21:27.045Z,100767.09
2023-01-07T03:22:31.597Z,100762.06
2023-01-07T03:23:35.867Z,100755.22
2023-01-07T03:24:39.572Z,100764.81
2023-01-07T03:25:46.086Z,100766.50
2023-01-07T03:26:52.635Z,100756.44
2023-01-07T03:27:57.051Z,100758.91
2023-01-07T03:29:01.769Z,100757.31
2023-01-07T03:30:09.187Z,100755.16
2023-01-07T03:31:14.728Z,100757.44
2023-01-07T03:32:18.946Z,100746.75
2023-01-07T03:33:27.451Z,100755.72
2023-01-07T03:34:31.431Z,100757.56
2023-01-07T03:35:37.121Z,100768.72
2023-01-07T03:36:43.719Z,100764.38
2023-01-07T03:37:46.670Z,100762.75
2023-01-07T03:38:50.533Z,100767.09
2023-01-07T03:39:52.860Z,100762.78
2023-01-07T03:40:55.942Z,100754.31
2023-01-07T03:42:16.420Z,100746.97
2023-01-07T03:43:20.229Z,100756.78
2023-01-07T03:44:21.704Z,100752.91
2023-01-07T03:45:26.282Z,100757.66
2023-01-07T03:46:28.686Z,100750.66
2023-01-07T03:47:31.171Z,100748.00
2023-01-07T03:48:33.994Z,100747.09
2023-01-07T03:49:38.653Z,100750.66
2023-01-07T03:50:40.318Z,100752.31
2023-01-07T03:51:42.790Z,100748.19
2023-01-07T03:52:45.329Z,100743.00
2023-01-07T03:53:47.775Z,100747.84
2023-01-07T03:54:49.335Z,100752.78
2023-01-07T03:55:51.821Z,100745.78
2023-01-07T03:56:53.358Z,100753.75
2023-01-07T03:57:56.514Z,100749.88
2023-01-07T03:58:57.995Z,100749.19
2023-01-07T04:00:00.459Z,100752.91
2023-01-07T04:01:02.104Z,100741.75
2023-01-07T04:02:04.695Z,100747.59
2023-01-07T04:03:06.326Z,100740.84
2023-01-07T04:04:10.153Z,100733.78
2023-01-07T04:05:13.356Z,100742.03
2023-01-07T04:06:15.830Z,100739.59
2023-01-07T04:07:17.389Z,100730.34
2023-01-07T04:08:19.851Z,100724.94
2023-01-07T04:09:22.016Z,100730.69
2023-01-07T04:10:24.627Z,100724.13
2023-01-07T04:11:26.337Z,100720.66
2023-01-07T04:12:28.818Z,100726.94
2023-01-07T04:13:30.336Z,100726.94
2023-01-07T04:14:32.943Z,100728.56
2023-01-07T04:15:34.539Z,100725.84
2023-01-07T04:16:37.846Z,100710.31
2023-01-07T04:17:40.396Z,100723.38
2023-01-07T04:18:42.166Z,100705.88
2023-01-07T04:19:46.482Z,100719.28
2023-01-07T04:20:48.730Z,100713.47
2023-01-07T04:21:51.237Z,100709.91
2023-01-07T04:22:52.747Z,100712.38
2023-01-07T04:23:55.189Z,100714.28
2023-01-07T04:24:57.987Z,100718.09
2023-01-07T04:26:00.500Z,100707.78
2023-01-07T04:27:02.184Z,100714.84
2023-01-07T04:28:05.033Z,100706.66
2023-01-07T04:29:06.537Z,100706.94
2023-01-07T04:30:09.791Z,100715.44
2023-01-07T04:31:11.342Z,100716.97
2023-01-07T04:32:13.830Z,100707.97
2023-01-07T04:33:15.501Z,100712.69
2023-01-07T04:34:18.215Z,100711.59
2023-01-07T04:35:21.050Z,100711.84
2023-01-07T04:36:23.544Z,100708.88
2023-01-07T04:37:25.136Z,100714.41
2023-01-07T04:38:27.590Z,100705.94
2023-01-07T04:39:29.082Z,100707.84
2023-01-07T04:40:31.660Z,100700.75
2023-01-07T04:41:33.156Z,100711.13
2023-01-07T04:42:35.610Z,100717.09
2023-01-07T04:43:37.483Z,100712.78
2023-01-07T04:44:39.909Z,100714.38
2023-01-07T04:45:41.722Z,100710.19
2023-01-07T04:46:44.297Z,100705.88
2023-01-07T04:47:45.776Z,100706.66
2023-01-07T04:48:48.221Z,100708.84
2023-01-07T04:49:49.747Z,100708.00
2023-01-07T04:50:53.657Z,100709.91
2023-01-07T04:51:55.140Z,100705.88
2023-01-07T04:52:57.548Z,100689.50
2023-01-07T04:53:59.048Z,100699.88
2023-01-07T04:55:01.589Z,100705.66
2023-01-07T04:56:05.630Z,100699.34
2023-01-07T04:57:08.294Z,100699.38
2023-01-07T04:58:09.834Z,100703.50
2023-01-07T04:59:12.261Z,100699.69
2023-01-07T05:00:14.520Z,100697.75
2023-01-07T05:01:17.070Z,100691.78
2023-01-07T05:02:18.576Z,100700.75
2023-01-07T05:03:21.090Z,100697.78
2023-01-07T05:04:22.670Z,100700.22
2023-01-07T05:05:25.157Z,100697.22
2023-01-07T05:06:27.962Z,100689.31
2023-01-07T05:07:30.396Z,100699.13
2023-01-07T05:08:31.920Z,100699.13
2023-01-07T05:09:34.712Z,100694.50
2023-01-07T05:10:36.263Z,100688.50
2023-01-07T05:11:38.847Z,100698.03
2023-01-07T05:12:40.399Z,100698.03
2023-01-07T05:13:42.843Z,100701.31
2023-01-07T05:14:44.427Z,100695.84
2023-01-07T05:15:47.058Z,100697.13
2023-01-07T05:16:48.775Z,100694.97
2023-01-07T05:17:51.219Z,100695.75
2023-01-07T05:18:52.692Z,100698.19
2023-01-07T05:19:55.187Z,100687.31
2023-01-07T05:20:56.700Z,100698.56
2023-01-07T05:22:01.070Z,100698.84
2023-01-07T05:23:03.784Z,100692.84
2023-01-07T05:24:06.619Z,100694.22
2023-01-07T05:25:08.886Z,100686.59
2023-01-07T05:26:11.341Z,100691.50
2023-01-07T05:27:12.976Z,100675.41
2023-01-07T05:28:15.437Z,100698.28
2023-01-07T05:29:16.991Z,100687.06
2023-01-07T05:30:19.432Z,100683.50
2023-01-07T05:31:20.984Z,100694.06
2023-01-07T05:32:23.508Z,100695.38
2023-01-07T05:33:25.105Z,100693.50
2023-01-07T05:34:27.690Z,100689.44
2023-01-07T05:35:29.176Z,100685.91
2023-01-07T05:36:31.631Z,100694.56
2023-01-07T05:37:34.463Z,100697.31
2023-01-07T05:38:36.867Z,100681.25
2023-01-07T05:39:38.442Z,100684.00
2023-01-07T05:40:42.244Z,100686.19
2023-01-07T05:41:43.770Z,100688.59
2023-01-07T05:42:46.279Z,100690.50
2023-01-07T05:43:47.849Z,100687.78
2023-01-07T05:44:50.283Z,100682.31
2023-01-07T05:45:51.935Z,100682.53
2023-01-07T05:46:54.427Z,100687.47
2023-01-07T05:47:55.919Z,100680.06
2023-01-07T05:48:58.416Z,100685.28
2023-01-07T05:49:59.890Z,100678.50
2023-01-07T05:51:02.431Z,100676.31
2023-01-07T05:52:04.202Z,100685.59
2023-01-07T05:53:08.487Z,100669.75
2023-01-07T05:54:10.260Z,100681.84
2023-01-07T05:55:13.296Z,100685.34
2023-01-07T05:56:14.835Z,100681.34
2023-01-07T05:57:17.256Z,100668.78
2023-01-07T05:58:18.706Z,100676.75
2023-01-07T05:59:21.194Z,100680.78
2023-01-07T06:00:22.785Z,100681.38
2023-01-07T06:01:25.353Z,100674.28
2023-01-07T06:02:26.861Z,100672.56
2023-01-07T06:03:29.304Z,100678.69
2023-01-07T06:04:30.898Z,100663.22
2023-01-07T06:05:33.707Z,100671.44
2023-01-07T06:06:35.269Z,100673.84
2023-01-07T06:07:37.945Z,100673.59
2023-01-07T06:08:40.806Z,100682.50
2023-01-07T06:09:43.293Z,100680.09
2023-01-07T06:10:44.933Z,100674.59
2023-01-07T06:11:47.359Z,100681.38
2023-01-07T06:12:48.917Z,100680.59
2023-01-07T06:13:51.420Z,100685.28
2023-01-07T06:14:53.020Z,100679.84
2023-01-07T06:16:00.243Z,100679.34
2023-01-07T06:17:02.706Z,100672.00
2023-01-07T06:18:04.226Z,100684.00
2023-01-07T06:19:06.739Z,100656.16
2023-01-07T06:20:10.524Z,100678.81
2023-01-07T06:21:12.086Z,100683.56
2023-01-07T06:22:15.366Z,100684.06
2023-01-07T06:23:16.878Z,100672.69
2023-01-07T06:24:20.710Z,100680.31
2023-01-07T06:25:22.297Z,100675.44
2023-01-07T06:26:24.827Z,100689.25
2023-01-07T06:27:26.339Z,100683.56
2023-01-07T06:28:28.779Z,100676.25
2023-01-07T06:29:30.322Z,100678.66
2023-01-07T06:30:32.828Z,100676.50
2023-01-07T06:31:34.444Z,100677.00
2023-01-07T06:32:42.619Z,100683.03
2023-01-07T06:33:45.489Z,100675.75
2023-01-07T06:34:47.130Z,100645.53
2023-01-07T06:35:54.340Z,100642.22
2023-01-07T06:37:00.306Z,100640.56
2023-01-07T06:38:02.812Z,100674.28
2023-01-07T06:39:04.981Z,100655.38
2023-01-07T06:40:10.005Z,100679.47
2023-01-07T06:41:11.530Z,100667.38
2023-01-07T06:42:13.985Z,100681.53
2023-01-07T06:43:15.556Z,100679.34
2023-01-07T06:44:19.981Z,100686.13
2023-01-07T06:45:21.782Z,100668.94
2023-01-07T06:46:24.380Z,100679.06
2023-01-07T06:47:25.994Z,100685.91
2023-01-07T06:48:28.478Z,100684.31
2023-01-07T06:49:30.887Z,100675.25
2023-01-07T06:50:32.440Z,100678.63
2023-01-07T06:51:34.923Z,100683.00
2023-01-07T06:52:36.449Z,100675.19
2023-01-07T06:53:39.096Z,100662.91
2023-01-07T06:54:40.602Z,100669.69
2023-01-07T06:55:48.966Z,100673.25
2023-01-07T06:56:51.409Z,100676.53
2023-01-07T06:57:53.017Z,100669.56
2023-01-07T06:58:55.476Z,100664.38
2023-01-07T06:59:57.011Z,100677.75
2023-01-07T07:01:04.818Z,100674.50
2023-01-07T07:02:06.932Z,100674.00
2023-01-07T07:03:09.471Z,100668.00
2023-01-07T07:04:10.995Z,100663.91
2023-01-07T07:05:13.740Z,100666.16
2023-01-07T07:06:15.371Z,100665.88
2023-01-07T07:07:18.708Z,100666.69
2023-01-07T07:08:20.224Z,100671.31
2023-01-07T07:09:22.723Z,100668.59
2023-01-07T07:10:24.796Z,100667.78
2023-01-07T07:11:28.673Z,100659.59
2023-01-07T07:12:30.214Z,100665.59
2023-01-07T07:13:32.706Z,100664.50
2023-01-07T07:14:34.325Z,100671.06
2023-01-07T07:15:38.900Z,100672.41
2023-01-07T07:16:40.432Z,100671.31
2023-01-07T07:17:42.918Z,100676.75
2023-01-07T07:18:44.535Z,100678.69
2023-01-07T07:19:47.056Z,100683.31
2023-01-07T07:20:49.850Z,100683.88
2023-01-07T07:21:51.467Z,100680.03
2023-01-07T07:22:54.492Z,100676.50
2023-01-07T07:23:55.993Z,100685.22
2023-01-07T07:24:58.493Z,100680.03
2023-01-07T07:26:00.122Z,100682.47
2023-01-07T07:27:04.086Z,100681.38
2023-01-07T07:28:05.889Z,100680.31
2023-01-07T07:29:09.424Z,100680.84
2023-01-07T07:30:15.106Z,100680.59
2023-01-07T07:31:17.639Z,100686.84
2023-01-07T07:32:19.328Z,100694.19
2023-01-07T07:33:21.793Z,100680.78
2023-01-07T07:34:23.318Z,100688.75
2023-01-07T07:35:25.818Z,100687.91
2023-01-07T07:36:27.334Z,100691.72
2023-01-07T07:37:29.967Z,100682.72
2023-01-07T07:38:31.511Z,100678.59
2023-01-07T07:39:34.371Z,100689.00
2023-01-07T07:40:35.918Z,100678.91
2023-01-07T07:41:38.686Z,100677.56
2023-01-07T07:43:11.820Z,100670.19
2023-01-07T07:44:04.101Z,100687.41
2023-01-07T07:45:06.893Z,100677.84
2023-01-07T07:46:09.456Z,100680.31
2023-01-07T07:47:12.604Z,100680.56
2023-01-07T07:48:15.429Z,100679.47
2023-01-07T07:49:17.983Z,100674.84
2023-01-07T07:50:19.620Z,100677.31
2023-01-07T07:51:22.081Z,100677.28
2023-01-07T07:52:23.607Z,100675.13
2023-01-07T07:53:26.201Z,100674.28
2023-01-07T07:54:28.412Z,100674.84
2023-01-07T07:55:30.885Z,100674.06
2023-01-07T07:56:32.769Z,100675.41
2023-01-07T07:57:39.220Z,100683.28
2023-01-07T07:58:42.984Z,100667.75
2023-01-07T07:59:45.438Z,100677.25
2023-01-07T08:00:47.029Z,100674.22
2023-01-07T08:01:50.434Z,100675.88
2023-01-07T08:02:53.713Z,100680.78
2023-01-07T08:03:56.831Z,100684.34
2023-01-07T08:05:00.842Z,100675.91
2023-01-07T08:06:04.054Z,100677.56
2023-01-07T08:07:06.692Z,100677.28
2023-01-07T08:08:10.071Z,100678.38
2023-01-07T08:09:11.598Z,100682.72
2023-01-07T08:10:14.226Z,100683.50
2023-01-07T08:11:16.619Z,100681.56
2023-01-07T08:12:20.264Z,100680.75
2023-01-07T08:13:23.732Z,100675.88
2023-01-07T08:14:27.582Z,100683.47
2023-01-07T08:15:29.831Z,100650.28
2023-01-07T08:16:32.599Z,100667.97
2023-01-07T08:17:34.271Z,100684.28
2023-01-07T08:18:36.731Z,100682.88
2023-01-07T08:19:38.274Z,100684.28
2023-01-07T08:20:40.938Z,100678.25
2023-01-07T08:21:43.380Z,100685.41
2023-01-07T08:22:44.929Z,100663.13
2023-01-07T08:23:47.436Z,100683.31
2023-01-07T08:24:48.976Z,100681.41
2023-01-07T08:25:51.396Z,100680.03
2023-01-07T08:26:55.598Z,100675.94
2023-01-07T08:27:59.497Z,100664.22
2023-01-07T08:29:01.031Z,100665.84
2023-01-07T08:30:05.596Z,100666.91
2023-01-07T08:31:08.015Z,100677.53
2023-01-07T08:32:10.490Z,100675.09
2023-01-07T08:33:11.991Z,100669.69
2023-01-07T08:34:14.424Z,100660.97
2023-01-07T08:35:17.020Z,100674.56
2023-01-07T08:36:23.062Z,100678.94
2023-01-07T08:37:25.960Z,100666.41
2023-01-07T08:38:31.371Z,100662.56
2023-01-07T08:39:33.816Z,100664.22
2023-01-07T08:40:36.523Z,100657.69
2023-01-07T08:41:38.112Z,100662.06
2023-01-07T08:42:41.235Z,100665.84
2023-01-07T08:43:45.062Z,100655.78
2023-01-07T08:44:46.628Z,100654.41
2023-01-07T08:45:50.681Z,100662.84
2023-01-07T08:46:53.489Z,100664.75
2023-01-07T08:47:57.627Z,100671.06
2023-01-07T08:49:00.114Z,100660.41
2023-01-07T08:50:01.608Z,100656.53
2023-01-07T08:51:04.253Z,100668.47
2023-01-07T08:52:06.181Z,100667.44
2023-01-07T08:53:08.695Z,100669.09
2023-01-07T08:54:11.130Z,100666.91
2023-01-07T08:55:12.706Z,100666.63
2023-01-07T08:56:15.234Z,100658.44
2023-01-07T08:57:19.477Z,100667.41
2023-01-07T08:58:21.025Z,100658.97
2023-01-07T08:59:23.528Z,100657.09
2023-01-07T09:00:25.272Z,100666.91
2023-01-07T09:01:29.241Z,100656.53
2023-01-07T09:02:31.018Z,100664.78
2023-01-07T09:03:34.001Z,100668.25
2023-01-07T09:04:36.453Z,100662.88
2023-01-07T09:05:38.976Z,100660.41
2023-01-07T09:06:41.395Z,100660.38
2023-01-07T09:07:43.208Z,100655.75
2023-01-07T09:08:45.639Z,100655.22
2023-01-07T09:09:47.334Z,100657.16
2023-01-07T09:10:49.810Z,100654.69
2023-01-07T09:11:51.292Z,100642.16
2023-01-07T09:12:53.790Z,100656.03
2023-01-07T09:13:56.266Z,100652.22
2023-01-07T09:14:57.759Z,100661.50
2023-01-07T09:16:00.338Z,100669.13
2023-01-07T09:17:03.228Z,100663.16
2023-01-07T09:18:07.010Z,100664.75
2023-01-07T09:19:10.248Z,100651.41
2023-01-07T09:20:12.680Z,100650.56
2023-01-07T09:21:14.249Z,100655.50
2023-01-07T09:22:16.747Z,100652.22
2023-01-07T09:23:21.031Z,100653.81
2023-01-07T09:24:22.546Z,100653.81
2023-01-07T09:25:25.154Z,100657.59
2023-01-07T09:26:26.811Z,100648.78
2023-01-07T09:27:29.691Z,100643.59
2023-01-07T09:28:34.073Z,100656.84
2023-01-07T09:29:35.599Z,100653.38
2023-01-07T09:30:38.284Z,100646.81
2023-01-07T09:31:41.443Z,100643.19
2023-01-07T09:32:45.757Z,100650.53
2023-01-07T09:33:47.287Z,100648.22
2023-01-07T09:34:49.943Z,100646.78
2023-01-07T09:35:52.436Z,100654.78
2023-01-07T09:36:53.941Z,100653.78
2023-01-07T09:37:56.425Z,100657.38
2023-01-07T09:38:58.876Z,100646.13
2023-01-07T09:40:01.168Z,100647.19
2023-01-07T09:41:03.762Z,100647.16
2023-01-07T09:42:12.803Z,100645.41
2023-01-07T09:43:19.536Z,100652.78
2023-01-07T09:44:34.707Z,100648.22
2023-01-07T09:45:39.941Z,100644.94
2023-01-07T09:46:43.512Z,100650.34
2023-01-07T09:47:51.239Z,100646.59
2023-01-07T09:48:58.981Z,100639.44
2023-01-07T09:50:04.099Z,100640.69
2023-01-07T09:51:14.068Z,100634.34
2023-01-07T09:52:21.370Z,100641.19
2023-01-07T09:53:27.741Z,100647.06
2023-01-07T09:54:32.991Z,100643.81
2023-01-07T09:55:37.645Z,100651.75
2023-01-07T09:56:41.305Z,100642.41
2023-01-07T09:57:44.077Z,100641.00
2023-01-07T09:58:48.817Z,100630.81
2023-01-07T09:59:50.296Z,100637.97
2023-01-07T10:01:01.018Z,100622.47
2023-01-07T10:02:17.440Z,100635.50
2023-01-07T10:03:40.858Z,100648.69
2023-01-07T10:04:51.991Z,100618.44
2023-01-07T10:06:07.407Z,100637.81
2023-01-07T10:07:20.128Z,100626.06
2023-01-07T10:08:32.157Z,100630.75
2023-01-07T10:09:48.331Z,100631.81
2023-01-07T10:10:56.857Z,100630.22
2023-01-07T10:12:07.411Z,100636.72
2023-01-07T10:13:34.257Z,100630.34
2023-01-07T10:15:06.094Z,100622.50
2023-01-07T10:16:14.823Z,100619.91
2023-01-07T10:17:27.348Z,100617.94
2023-01-07T10:18:43.483Z,100618.47
2023-01-07T10:19:50.423Z,100615.97
2023-01-07T10:21:00.442Z,100613.59
2023-01-07T10:22:09.357Z,100616.09
2023-01-07T10:23:15.294Z,100621.56
2023-01-07T10:24:22.706Z,100628.47
2023-01-07T10:25:28.736Z,100612.72
2023-01-07T10:26:36.548Z,100609.88
2023-01-07T10:27:42.475Z,100610.72
2023-01-07T10:28:50.627Z,100605.00
2023-01-07T10:29:56.332Z,100615.97
2023-01-07T10:31:01.303Z,100603.59
2023-01-07T10:32:08.029Z,100610.34
2023-01-07T10:33:20.064Z,100612.72
2023-01-07T10:34:32.998Z,100590.69
2023-01-07T10:35:40.599Z,100605.50
2023-01-07T10:36:58.350Z,100600.56
2023-01-07T10:38:04.818Z,100601.56
2023-01-07T10:39:19.174Z,100594.09
2023-01-07T10:40:33.542Z,100603.00
2023-01-07T10:41:45.990Z,100593.28
2023-01-07T10:42:57.038Z,100593.88
2023-01-07T10:44:16.856Z,100590.81
2023-01-07T10:45:37.828Z,100596.81
2023-01-07T10:46:49.407Z,100599.00
2023-01-07T10:48:06.405Z,100586.91
2023-01-07T10:49:22.559Z,100580.06
2023-01-07T10:50:37.817Z,100576.03
2023-01-07T10:51:57.835Z,100563.22
2023-01-07T10:53:08.615Z,100572.66
2023-01-07T10:54:24.036Z,100572.94
2023-01-07T10:55:38.339Z,100562.22
2023-01-07T10:56:45.051Z,100568.56
2023-01-07T10:57:48.431Z,100565.47
2023-01-07T10:58:52.048Z,100575.78
2023-01-07T10:59:59.216Z,100573.34
2023-01-07T11:01:01.969Z,100563.53
2023-01-07T11:02:06.092Z,100564.88
2023-01-07T11:03:19.351Z,100564.34
2023-01-07T11:04:22.148Z,100559.78
2023-01-07T11:05:28.543Z,100554.84
2023-01-07T11:06:39.558Z,100550.34
2023-01-07T11:07:45.790Z,100553.47
2023-01-07T11:08:49.972Z,100552.50
2023-01-07T11:09:53.544Z,100549.31
2023-01-07T11:10:58.616Z,100536.38
2023-01-07T11:12:18.803Z,100536.63
2023-01-07T11:13:25.763Z,100543.00
2023-01-07T11:14:32.389Z,100542.78
2023-01-07T11:15:38.247Z,100530.31
2023-01-07T11:16:46.487Z,100536.22
2023-01-07T11:17:52.343Z,100535.16
2023-01-07T11:18:58.556Z,100535.44
2023-01-07T11:20:01.031Z,100539.28
2023-01-07T11:21:04.913Z,100533.91
2023-01-07T11:22:29.301Z,100529.91
2023-01-07T11:23:37.188Z,100529.63
2023-01-07T11:24:38.819Z,100517.38
2023-01-07T11:25:42.037Z,100533.47
2023-01-07T11:26:44.556Z,100540.63
2023-01-07T11:27:46.193Z,100519.66
2023-01-07T11:28:53.276Z,100528.19
2023-01-07T11:29:59.398Z,100524.53
2023-01-07T11:31:02.011Z,100520.53
2023-01-07T11:32:05.919Z,100517.44
2023-01-07T11:33:15.449Z,100524.25
2023-01-07T11:34:23.647Z,100524.41
2023-01-07T11:35:28.172Z,100524.66
2023-01-07T11:36:42.213Z,100510.28
2023-01-07T11:37:47.791Z,100506.44
2023-01-07T11:38:49.335Z,100515.34
2023-01-07T11:39:59.249Z,100530.59
2023-01-07T11:41:01.457Z,100519.88
2023-01-07T11:42:34.941Z,100505.78
2023-01-07T11:43:40.850Z,100519.94
2023-01-07T11:44:42.484Z,100508.28
2023-01-07T11:46:19.515Z,100509.22
2023-01-07T11:47:16.515Z,100510.97
2023-01-07T11:48:24.832Z,100509.69
2023-01-07T11:49:29.908Z,100489.81
2023-01-07T11:50:36.057Z,100498.38
2023-01-07T11:51:41.539Z,100489.06
2023-01-07T11:52:55.286Z,100486.56
2023-01-07T11:54:00.176Z,100486.16
2023-01-07T11:55:01.872Z,100494.75
2023-01-07T11:56:06.791Z,100493.28
2023-01-07T11:57:13.278Z,100501.81
2023-01-07T11:58:28.585Z,100493.75
2023-01-07T11:59:32.692Z,100492.53
2023-01-07T12:00:34.253Z,100485.03
2023-01-07T12:01:43.012Z,100486.59
2023-01-07T12:02:45.521Z,100486.22
2023-01-07T12:04:12.687Z,100482.97
2023-01-07T12:05:22.665Z,100483.31
2023-01-07T12:06:27.386Z,100482.09
2023-01-07T12:07:31.223Z,100476.69
2023-01-07T12:08:32.850Z,100477.25
2023-01-07T12:09:38.334Z,100473.69
2023-01-07T12:10:40.097Z,100471.91
2023-01-07T12:11:45.121Z,100473.16
2023-01-07T12:12:46.786Z,100480.66
2023-01-07T12:13:53.257Z,100466.75
2023-01-07T12:14:55.807Z,100466.47
2023-01-07T12:16:01.833Z,100478.75
2023-01-07T12:17:10.318Z,100478.84
2023-01-07T12:18:29.651Z,100464.72
2023-01-07T12:19:55.662Z,100464.22
2023-01-07T12:21:19.347Z,100461.63
2023-01-07T12:22:31.729Z,100471.13
2023-01-07T12:23:45.900Z,100468.72
2023-01-07T12:25:19.153Z,100454.75